Time;durP1;ratioP1;P1;durP2;ratioP2;P2;SDS_P1;SDS_P2;PMS_P1;PMS_P2;Temp;Humidity;BMP_temperature;BMP_pressure;BME280_temperature;BME280_humidity;BME280_pressure;Samples;Min_cycle;Max_cycle;Signal;HPM_P1;HPM_P2
2022/04/07 00:01:17;;;;;;;;;;;;;;;8.21;59.11;100175.42;1773989;81;20210;-60
2022/04/07 00:04:17;;;;;;;;;;;;;;;8.15;59.38;100174.73;1774223;80;20261;-61
2022/04/07 00:07:09;;;;;;;;;;;;;;;8.08;59.68;100173.67;1774017;80;20573;-61
2022/04/07 00:10:15;;;;;;;;;;;;;;;8.00;59.97;100177.23;1773735;80;20530;-61
2022/04/07 00:13:20;;;;;;;;;;;;;;;7.94;60.39;100175.17;1774559;80;20562;-60
2022/04/07 00:16:25;;;;;;;;;;;;;;;7.88;60.73;100178.52;1774015;81;20506;-61
2022/04/07 00:19:31;;;;;;;;;;;;;;;7.81;61.11;100180.70;1773201;80;20202;-61
2022/04/07 00:22:36;;;;;;;;;;;;;;;7.76;61.44;100190.73;1773691;80;20226;-62
2022/04/07 00:25:43;;;;;;;;;;;;;;;7.71;61.61;100186.81;1773919;80;20174;-61
2022/04/07 00:28:48;;;;;;;;;;;;;;;7.71;61.88;100184.09;1774372;80;20450;-61
2022/04/07 00:31:58;;;;;;;;;;;;;;;7.69;62.00;100183.39;1773884;81;20285;-61
2022/04/07 00:35:05;;;;;;;;;;;;;;;7.66;62.11;100179.63;1774003;80;20237;-62
2022/04/07 00:38:11;;;;;;;;;;;;;;;7.63;62.22;100178.92;1773914;80;20249;-61
2022/04/07 00:41:16;;;;;;;;;;;;;;;7.61;62.36;100170.05;1773495;80;20249;-61
2022/04/07 00:44:22;;;;;;;;;;;;;;;7.61;62.52;100172.78;1774029;81;20198;-60
2022/04/07 00:47:27;;;;;;;;;;;;;;;7.62;62.63;100170.92;1774058;80;20241;-61
2022/04/07 00:50:31;;;;;;;;;;;;;;;7.62;62.73;100169.55;1773929;81;20511;-61
2022/04/07 00:53:36;;;;;;;;;;;;;;;7.63;62.81;100169.06;1766622;81;20217;-62
2022/04/07 00:56:43;;;;;;;;;;;;;;;7.60;62.87;100165.63;1773925;81;20174;-63
2022/04/07 00:59:47;;;;;;;;;;;;;;;7.58;62.94;100159.98;1773898;80;20237;-62
2022/04/07 01:02:53;;;;;;;;;;;;;;;7.55;63.07;100160.31;1773923;80;20194;-62
2022/04/07 01:05:59;;;;;;;;;;;;;;;7.53;63.19;100157.75;1773891;80;20181;-62
2022/04/07 01:09:03;;;;;;;;;;;;;;;7.52;63.38;100157.42;1773831;80;20225;-61
2022/04/07 01:12:08;;;;;;;;;;;;;;;7.49;63.42;100156.38;1774653;80;20245;-60
2022/04/07 01:15:14;;;;;;;;;;;;;;;7.45;63.60;100157.70;1740399;82;20257;-59
2022/04/07 01:18:21;;;;;;;;;;;;;;;7.42;63.79;100152.58;1740168;82;20188;-61
2022/04/07 01:21:25;;;;;;;;;;;;;;;7.39;63.97;100152.05;1742820;82;20306;-61
2022/04/07 01:24:36;;;;;;;;;;;;;;;7.35;64.20;100155.63;1740017;82;20537;-61
2022/04/07 01:27:41;;;;;;;;;;;;;;;7.33;64.35;100159.50;1742887;82;20236;-61
2022/04/07 01:30:45;;;;;;;;;;;;;;;7.29;64.63;100145.35;1740093;82;20251;-61
2022/04/07 01:33:50;;;;;;;;;;;;;;;7.26;64.93;100151.12;1740111;82;20228;-61
2022/04/07 01:36:56;;;;;;;;;;;;;;;7.23;65.16;100152.80;1740086;82;20200;-62
2022/04/07 01:40:02;;;;;;;;;;;;;;;7.18;65.36;100142.90;1740046;82;20200;-61
2022/04/07 01:43:09;;;;;;;;;;;;;;;7.11;65.65;100142.34;1739841;82;20224;-61
2022/04/07 01:46:15;;;;;;;;;;;;;;;7.09;65.89;100151.17;1740051;82;20196;-61
2022/04/07 01:49:23;;;;;;;;;;;;;;;7.06;66.16;100141.47;1740158;82;20514;-60
2022/04/07 01:52:27;;;;;;;;;;;;;;;7.05;66.41;100145.71;1740100;82;20203;-61
2022/04/07 01:55:32;;;;;;;;;;;;;;;7.03;66.62;100141.80;1740024;82;20575;-62
2022/04/07 01:58:38;;;;;;;;;;;;;;;7.01;66.78;100149.75;1740111;82;20536;-61
2022/04/07 02:01:45;;;;;;;;;;;;;;;6.99;67.12;100143.10;1740357;82;20220;-62
2022/04/07 02:05:09;;;;;;;;;;;;;;;6.97;67.25;100149.23;1740448;82;20220;-61
2022/04/07 02:08:13;;;;;;;;;;;;;;;6.92;67.40;100145.27;1740481;82;20188;-61
2022/04/07 02:11:18;;;;;;;;;;;;;;;6.88;67.72;100156.97;1740526;82;20524;-61
2022/04/07 02:14:23;;;;;;;;;;;;;;;6.84;68.01;100146.06;1748751;79;20194;-60
2022/04/07 02:17:28;;;;;;;;;;;;;;;6.85;68.28;100156.45;1774052;80;20174;-61
2022/04/07 02:20:34;;;;;;;;;;;;;;;6.84;68.51;100152.87;1774682;80;20189;-61
2022/04/07 02:23:44;;;;;;;;;;;;;;;6.82;68.76;100156.77;1774344;81;20174;-61
2022/04/07 02:26:46;;;;;;;;;;;;;;;6.78;68.90;100156.72;1775530;80;20221;-61
2022/04/07 02:29:51;;;;;;;;;;;;;;;6.71;69.18;100155.13;1774463;81;20511;-62
2022/04/07 02:32:57;;;;;;;;;;;;;;;6.65;69.54;100158.48;1774594;81;20257;-62
2022/04/07 02:36:02;;;;;;;;;;;;;;;6.59;69.80;100156.89;1774519;80;20336;-62
2022/04/07 02:39:07;;;;;;;;;;;;;;;6.53;70.11;100161.59;1774523;80;20202;-62
2022/04/07 02:42:14;;;;;;;;;;;;;;;6.47;70.49;100160.86;1775130;80;20190;-62
2022/04/07 02:45:19;;;;;;;;;;;;;;;6.46;70.71;100160.49;1774772;80;20178;-62
2022/04/07 02:48:24;;;;;;;;;;;;;;;6.44;70.92;100161.18;1774238;80;20528;-63
2022/04/07 02:51:31;;;;;;;;;;;;;;;6.40;71.13;100159.27;1775040;80;20182;-61
2022/04/07 02:54:36;;;;;;;;;;;;;;;6.36;71.33;100160.57;1774491;80;20193;-62
2022/04/07 02:57:41;;;;;;;;;;;;;;;6.31;71.67;100156.09;1773859;80;20533;-63
2022/04/07 03:00:46;;;;;;;;;;;;;;;6.28;71.90;100156.41;1774124;80;20178;-61
2022/04/07 03:03:55;;;;;;;;;;;;;;;6.25;72.25;100155.89;1774424;80;20252;-62
2022/04/07 03:07:00;;;;;;;;;;;;;;;6.24;72.44;100152.30;1776505;80;20182;-62
2022/04/07 03:10:05;;;;;;;;;;;;;;;6.23;72.66;100153.32;1764714;80;20190;-62
2022/04/07 03:13:10;;;;;;;;;;;;;;;6.22;72.85;100150.23;1774098;80;20178;-62
2022/04/07 03:16:15;;;;;;;;;;;;;;;6.24;72.98;100163.17;1774103;80;20230;-61
2022/04/07 03:19:22;;;;;;;;;;;;;;;6.23;73.12;100151.96;1774147;80;20198;-62
2022/04/07 03:22:27;;;;;;;;;;;;;;;6.21;73.24;100142.23;1774707;80;20182;-62
2022/04/07 03:25:34;;;;;;;;;;;;;;;6.20;73.36;100149.52;1774919;80;20264;-62
2022/04/07 03:28:41;;;;;;;;;;;;;;;6.18;73.43;100156.14;1774287;80;20534;-61
2022/04/07 03:31:46;;;;;;;;;;;;;;;6.17;73.56;100151.19;1774452;80;20569;-64
2022/04/07 03:34:52;;;;;;;;;;;;;;;6.19;73.69;100145.60;1711966;82;20529;-62
2022/04/07 03:37:57;;;;;;;;;;;;;;;6.22;73.75;100147.52;1710440;84;20212;-64
2022/04/07 03:41:02;;;;;;;;;;;;;;;6.28;73.89;100154.22;1710358;84;20185;-61
2022/04/07 03:44:07;;;;;;;;;;;;;;;6.34;73.92;100155.81;1710472;84;20315;-62
2022/04/07 03:47:11;;;;;;;;;;;;;;;6.41;73.93;100158.25;1764994;81;20208;-63
2022/04/07 03:50:16;;;;;;;;;;;;;;;6.49;73.90;100162.90;1748383;81;20259;-56
2022/04/07 03:53:21;;;;;;;;;;;;;;;6.59;73.87;100161.83;1729893;81;20208;-57
2022/04/07 03:56:26;;;;;;;;;;;;;;;6.68;73.87;100162.24;1764272;81;20211;-57
2022/04/07 03:59:38;;;;;;;;;;;;;;;6.77;73.79;100164.02;1752425;81;20220;-57
2022/04/07 04:02:41;;;;;;;;;;;;;;;6.89;73.74;100157.33;1764408;81;20224;-56
2022/04/07 04:05:47;;;;;;;;;;;;;;;6.99;73.67;100155.87;1765094;80;20549;-59
2022/04/07 04:08:50;;;;;;;;;;;;;;;7.11;73.41;100162.76;1765134;80;20220;-56
2022/04/07 04:11:56;;;;;;;;;;;;;;;7.19;73.20;100163.69;1765218;81;20221;-56
2022/04/07 04:15:01;;;;;;;;;;;;;;;7.30;73.15;100165.27;1764803;81;20239;-57
2022/04/07 04:18:07;;;;;;;;;;;;;;;7.40;72.84;100163.30;1754698;81;20244;-56
2022/04/07 04:21:11;;;;;;;;;;;;;;;7.49;72.58;100168.64;1753924;81;20217;-56
2022/04/07 04:24:18;;;;;;;;;;;;;;;7.56;72.42;100166.95;1753795;81;20201;-55
2022/04/07 04:27:24;;;;;;;;;;;;;;;7.73;72.27;100173.86;1735730;81;20240;-56
2022/04/07 04:30:30;;;;;;;;;;;;;;;7.90;72.02;100170.18;1753480;81;20201;-56
2022/04/07 04:33:35;;;;;;;;;;;;;;;8.05;71.31;100169.91;1737595;81;20246;-57
2022/04/07 04:36:40;;;;;;;;;;;;;;;8.19;71.03;100170.14;1727508;83;20642;-56
2022/04/07 04:39:45;;;;;;;;;;;;;;;8.30;70.53;100173.95;1728183;83;20210;-57
2022/04/07 04:42:52;;;;;;;;;;;;;;;8.39;70.05;100172.94;1728275;83;20203;-57
2022/04/07 04:45:56;;;;;;;;;;;;;;;8.46;69.47;100181.31;1731832;81;20229;-57
2022/04/07 04:49:03;;;;;;;;;;;;;;;8.49;69.14;100182.34;1741681;81;20216;-56
2022/04/07 04:52:08;;;;;;;;;;;;;;;8.54;68.95;100191.75;1728919;83;20589;-57
2022/04/07 04:55:15;;;;;;;;;;;;;;;8.61;68.59;100181.02;1751363;81;20549;-56
2022/04/07 04:58:24;;;;;;;;;;;;;;;8.67;68.15;100183.06;1758136;81;20215;-57
2022/04/07 05:01:29;;;;;;;;;;;;;;;8.68;67.82;100190.22;1748247;81;20204;-57
2022/04/07 05:04:35;;;;;;;;;;;;;;;8.70;67.60;100181.36;1758028;80;20559;-58
2022/04/07 05:07:40;;;;;;;;;;;;;;;8.75;67.50;100184.44;1757780;81;20200;-59
2022/04/07 05:10:59;;;;;;;;;;;;;;;8.85;67.20;100174.19;1740380;81;20248;-59
2022/04/07 05:14:18;;;;;;;;;;;;;;;8.85;66.81;100172.83;1757674;81;20349;-60
2022/04/07 05:17:28;;;;;;;;;;;;;;;8.91;66.69;100172.17;1759292;79;20585;-60
2022/04/07 05:20:38;;;;;;;;;;;;;;;8.99;66.54;100172.17;1779418;79;20233;-60
2022/04/07 05:23:46;;;;;;;;;;;;;;;9.08;66.25;100183.42;1780458;79;20508;-59
2022/04/07 05:26:53;;;;;;;;;;;;;;;9.18;65.97;100179.98;1785500;79;20194;-60
2022/04/07 05:30:00;;;;;;;;;;;;;;;9.31;65.75;100179.48;1780423;80;20216;-60
2022/04/07 05:33:08;;;;;;;;;;;;;;;9.38;65.48;100177.25;1778159;79;20564;-58
2022/04/07 05:36:21;;;;;;;;;;;;;;;9.40;64.96;100176.58;1797635;79;20542;-60
2022/04/07 05:39:25;;;;;;;;;;;;;;;9.32;64.65;100184.78;1789166;80;20242;-59
2022/04/07 05:42:31;;;;;;;;;;;;;;;9.30;65.04;100184.09;1788760;79;20515;-58
2022/04/07 05:45:44;;;;;;;;;;;;;;;9.47;65.03;100187.62;1772456;80;20197;-62
2022/04/07 05:48:50;;;;;;;;;;;;;;;9.63;64.67;100183.00;1777258;79;20324;-60
2022/04/07 05:52:00;;;;;;;;;;;;;;;9.78;64.22;100192.20;1795390;79;20205;-59
2022/04/07 05:55:04;;;;;;;;;;;;;;;9.93;63.86;100187.69;1800338;80;20294;-59
2022/04/07 05:58:15;;;;;;;;;;;;;;;10.00;63.56;100190.57;1777561;79;20549;-59
2022/04/07 06:01:19;;;;;;;;;;;;;;;9.98;63.30;100178.95;1785360;79;20228;-57
2022/04/07 06:04:23;;;;;;;;;;;;;;;9.96;63.51;100175.03;1776439;79;20250;-58
2022/04/07 06:07:28;;;;;;;;;;;;;;;10.04;63.17;100176.36;1774109;81;20310;-58
2022/04/07 06:10:34;;;;;;;;;;;;;;;10.19;63.12;100183.34;1773855;80;20207;-59
2022/04/07 06:13:40;;;;;;;;;;;;;;;10.33;62.65;100188.92;1774255;80;20207;-55
2022/04/07 06:16:46;;;;;;;;;;;;;;;10.41;62.22;100177.93;1774286;81;20219;-59
2022/04/07 06:19:51;;;;;;;;;;;;;;;10.56;62.05;100172.01;1771791;79;20206;-59
2022/04/07 06:22:57;;;;;;;;;;;;;;;10.78;61.86;100177.69;1772602;80;20577;-60
2022/04/07 06:26:02;;;;;;;;;;;;;;;10.93;60.90;100177.22;1773093;79;20558;-60
2022/04/07 06:29:07;;;;;;;;;;;;;;;11.03;60.64;100179.20;1772462;81;20546;-60
2022/04/07 06:32:14;;;;;;;;;;;;;;;11.18;60.12;100171.36;1772442;81;20202;-59
2022/04/07 06:35:19;;;;;;;;;;;;;;;11.34;59.72;100166.23;1771986;79;20293;-60
2022/04/07 06:38:25;;;;;;;;;;;;;;;11.54;59.59;100164.14;1772784;81;20249;-60
2022/04/07 06:41:35;;;;;;;;;;;;;;;11.67;58.85;100169.03;1796954;79;20248;-61
2022/04/07 06:44:42;;;;;;;;;;;;;;;11.74;58.67;100165.86;1800155;79;20233;-61
2022/04/07 06:47:47;;;;;;;;;;;;;;;11.87;58.06;100163.31;1800313;79;20234;-60
2022/04/07 06:50:51;;;;;;;;;;;;;;;11.98;57.63;100166.95;1800468;79;20205;-61
2022/04/07 06:53:58;;;;;;;;;;;;;;;12.19;56.87;100162.91;1814498;79;20235;-60
2022/04/07 06:57:02;;;;;;;;;;;;;;;12.38;56.31;100163.69;1771097;80;20597;-59
2022/04/07 07:00:11;;;;;;;;;;;;;;;12.60;55.66;100157.70;1786996;79;20807;-60
2022/04/07 07:03:18;;;;;;;;;;;;;;;12.76;54.38;100156.94;1799407;79;20589;-60
2022/04/07 07:06:34;;;;;;;;;;;;;;;12.92;53.95;100160.78;1790211;79;20566;-60
2022/04/07 07:09:40;;;;;;;;;;;;;;;13.13;52.99;100158.06;1789989;79;20225;-61
2022/04/07 07:12:42;;;;;;;;;;;;;;;13.24;52.46;100151.20;1785601;79;20553;-60
2022/04/07 07:15:51;;;;;;;;;;;;;;;13.33;52.44;100148.08;1787073;79;20499;-59
2022/04/07 07:18:56;;;;;;;;;;;;;;;13.49;52.00;100143.66;1782802;79;20232;-59
2022/04/07 07:22:04;;;;;;;;;;;;;;;13.68;51.76;100142.63;1771932;81;20192;-60
2022/04/07 07:25:10;;;;;;;;;;;;;;;13.85;51.02;100136.61;1778707;79;20520;-59
2022/04/07 07:28:18;;;;;;;;;;;;;;;13.94;50.58;100138.13;1777913;79;20215;-60
2022/04/07 07:31:30;;;;;;;;;;;;;;;14.05;50.77;100131.22;1789473;79;20197;-60
2022/04/07 07:34:41;;;;;;;;;;;;;;;14.17;49.93;100136.45;1789960;80;20210;-59
2022/04/07 07:38:04;;;;;;;;;;;;;;;14.27;49.62;100125.95;1789611;80;20210;-59
2022/04/07 07:41:10;;;;;;;;;;;;;;;14.35;49.40;100132.11;1797497;79;20546;-62
2022/04/07 07:44:18;;;;;;;;;;;;;;;14.41;49.40;100127.70;1783991;79;20561;-63
2022/04/07 07:47:23;;;;;;;;;;;;;;;14.46;48.97;100121.87;1796623;79;20213;-61
2022/04/07 07:50:27;;;;;;;;;;;;;;;14.53;48.66;100124.13;1799907;79;20202;-60
2022/04/07 07:53:34;;;;;;;;;;;;;;;14.54;48.08;100121.69;1799331;79;20519;-63
2022/04/07 07:56:38;;;;;;;;;;;;;;;14.54;48.28;100121.69;1778981;79;20209;-59
2022/04/07 07:59:43;;;;;;;;;;;;;;;14.60;48.13;100117.27;1796551;79;20600;-59
2022/04/07 08:02:47;;;;;;;;;;;;;;;14.67;47.94;100119.48;1774406;81;20547;-58
2022/04/07 08:05:52;;;;;;;;;;;;;;;14.71;46.81;100135.94;1773375;81;20517;-58
2022/04/07 08:08:57;;;;;;;;;;;;;;;14.75;46.62;100116.55;1786643;79;20213;-60
2022/04/07 08:12:03;;;;;;;;;;;;;;;14.78;47.53;100121.11;1770992;81;20195;-59
2022/04/07 08:15:08;;;;;;;;;;;;;;;14.82;47.40;100107.77;1772114;80;20212;-60
2022/04/07 08:18:15;;;;;;;;;;;;;;;14.84;47.32;100105.11;1776376;79;20233;-59
2022/04/07 08:21:22;;;;;;;;;;;;;;;14.84;47.25;100104.28;1793568;79;20201;-58
2022/04/07 08:24:29;;;;;;;;;;;;;;;14.85;46.95;100099.08;1791216;79;20246;-59
2022/04/07 08:27:35;;;;;;;;;;;;;;;14.86;47.32;100096.11;1805696;79;20277;-60
2022/04/07 08:30:44;;;;;;;;;;;;;;;14.98;47.07;100086.70;1804988;79;20303;-60
2022/04/07 08:33:49;;;;;;;;;;;;;;;15.06;46.65;100093.38;1805822;79;20621;-59
2022/04/07 08:36:56;;;;;;;;;;;;;;;15.16;46.80;100089.65;1785018;79;20244;-59
2022/04/07 08:40:05;;;;;;;;;;;;;;;15.25;46.54;100087.02;1730239;82;20214;-61
2022/04/07 08:43:11;;;;;;;;;;;;;;;15.36;45.91;100084.98;1772112;80;20212;-61
2022/04/07 08:46:19;;;;;;;;;;;;;;;15.49;45.71;100084.98;1777362;79;20480;-58
2022/04/07 08:49:23;;;;;;;;;;;;;;;15.63;44.60;100070.64;1789248;79;20209;-59
2022/04/07 08:52:28;;;;;;;;;;;;;;;15.73;44.40;100064.98;1799765;80;20205;-58
2022/04/07 08:55:26;;;;;;;;;;;;;;;15.85;43.90;100067.41;1799412;80;20205;-64
2022/04/07 08:58:20;;;;;;;;;;;;;;;15.96;43.22;100067.25;1798799;80;20205;-62
2022/04/07 09:01:27;;;;;;;;;;;;;;;16.05;42.96;100054.88;1803022;79;20241;-61
2022/04/07 09:04:39;;;;;;;;;;;;;;;16.16;42.53;100051.43;1763000;81;20235;-61
2022/04/07 09:07:46;;;;;;;;;;;;;;;16.24;41.79;100049.27;1768602;79;20211;-62
2022/04/07 09:11:01;;;;;;;;;;;;;;;16.37;42.31;100048.35;1795376;79;20244;-62
2022/04/07 09:14:07;;;;;;;;;;;;;;;16.48;41.11;100035.25;1788517;80;20420;-62
2022/04/07 09:17:12;;;;;;;;;;;;;;;16.58;40.80;100032.00;1772899;81;20557;-61
2022/04/07 09:20:19;;;;;;;;;;;;;;;16.68;39.83;100026.83;1773431;81;20235;-61
2022/04/07 09:23:24;;;;;;;;;;;;;;;16.76;39.73;100015.50;1771662;81;20223;-62
2022/04/07 09:26:29;;;;;;;;;;;;;;;16.82;39.17;100007.16;1707224;84;20216;-63
2022/04/07 09:29:46;;;;;;;;;;;;;;;16.88;38.88;100002.63;1707019;84;20264;-64
2022/04/07 09:32:52;;;;;;;;;;;;;;;16.93;38.73;99995.36;1772610;81;20211;-61
2022/04/07 09:36:21;;;;;;;;;;;;;;;17.05;38.41;99992.69;1708003;84;20587;-56
2022/04/07 09:39:21;;;;;;;;;;;;;;;17.17;38.21;99992.27;1773523;81;20207;-58
2022/04/07 09:42:29;;;;;;;;;;;;;;;17.29;37.91;99982.12;1774633;81;20302;-57
2022/04/07 09:45:35;;;;;;;;;;;;;;;17.39;37.13;99974.16;1758629;80;20227;-58
2022/04/07 09:48:44;;;;;;;;;;;;;;;17.44;36.48;99981.23;1773447;81;20767;-58
2022/04/07 09:51:53;;;;;;;;;;;;;;;17.49;36.00;99978.10;1708943;84;20221;-56
2022/04/07 09:54:57;;;;;;;;;;;;;;;17.51;35.61;99969.03;1774068;81;20208;-57
2022/04/07 09:58:04;;;;;;;;;;;;;;;17.58;35.60;99953.74;1717677;82;20602;-56
2022/04/07 10:01:10;;;;;;;;;;;;;;;17.65;35.12;99957.25;1805214;79;20528;-58
2022/04/07 10:04:15;;;;;;;;;;;;;;;17.73;35.21;99952.79;1774114;79;20211;-59
2022/04/07 10:07:21;;;;;;;;;;;;;;;17.81;34.80;99956.09;1780841;79;20616;-67
2022/04/07 10:10:28;;;;;;;;;;;;;;;17.89;34.62;99954.39;1774510;80;20215;-63
2022/04/07 10:13:48;;;;;;;;;;;;;;;17.98;34.27;99963.23;1708543;84;20224;-66
2022/04/07 10:16:58;;;;;;;;;;;;;;;18.05;33.61;99954.28;1773856;80;20279;-58
2022/04/07 10:20:12;;;;;;;;;;;;;;;18.14;33.48;99950.09;1712459;82;20602;-59
2022/04/07 10:23:36;;;;;;;;;;;;;;;18.20;33.04;99949.17;1775654;79;20201;-61
2022/04/07 10:26:42;;;;;;;;;;;;;;;18.26;33.21;99945.45;1785398;80;20243;-62
2022/04/07 10:29:48;;;;;;;;;;;;;;;18.35;33.27;99924.63;1771847;80;20222;-60
2022/04/07 10:32:58;;;;;;;;;;;;;;;18.52;32.81;99943.67;1750026;80;20204;-63
2022/04/07 10:36:11;;;;;;;;;;;;;;;18.68;32.96;99926.34;1768025;80;20219;-62
2022/04/07 10:39:19;;;;;;;;;;;;;;;18.84;31.64;99915.94;1749060;81;20208;-56
2022/04/07 10:42:27;;;;;;;;;;;;;;;18.94;31.15;99918.11;1762086;81;20267;-56
2022/04/07 10:45:43;;;;;;;;;;;;;;;19.01;30.50;99918.84;1745232;81;20224;-57
2022/04/07 10:48:59;;;;;;;;;;;;;;;19.06;29.69;99916.16;1761523;81;20560;-56
2022/04/07 10:52:15;;;;;;;;;;;;;;;19.10;30.34;99909.91;1766399;80;20605;-55
2022/04/07 10:55:20;;;;;;;;;;;;;;;19.24;29.68;99915.51;1762647;80;20267;-56
2022/04/07 10:58:30;;;;;;;;;;;;;;;19.29;29.17;99907.34;1774455;80;20209;-56
2022/04/07 11:01:42;;;;;;;;;;;;;;;19.33;29.56;99911.01;1772830;80;20213;-57
2022/04/07 11:05:10;;;;;;;;;;;;;;;19.45;30.00;99903.48;1768079;80;20597;-57
2022/04/07 11:08:14;;;;;;;;;;;;;;;19.62;30.48;99911.34;1769232;80;20261;-56
2022/04/07 11:11:19;;;;;;;;;;;;;;;19.85;30.18;99909.90;1766358;80;20264;-61
2022/04/07 11:14:24;;;;;;;;;;;;;;;20.00;29.21;99899.92;1745585;80;20204;-62
2022/04/07 11:17:38;;;;;;;;;;;;;;;20.11;29.00;99903.73;1778305;80;20243;-60
2022/04/07 11:20:44;;;;;;;;;;;;;;;20.16;28.50;99896.38;1765902;80;20257;-57
2022/04/07 11:24:14;;;;;;;;;;;;;;;20.14;28.82;99887.44;1776951;79;20259;-57
2022/04/07 11:27:45;;;;;;;;;;;;;;;20.20;28.67;99897.55;1776925;79;20209;-56
2022/04/07 11:30:56;;;;;;;;;;;;;;;20.27;28.80;99886.27;1778808;79;20566;-55
2022/04/07 11:34:13;;;;;;;;;;;;;;;20.30;29.00;99887.16;1802656;79;20644;-57
2022/04/07 11:37:23;;;;;;;;;;;;;;;20.43;29.29;99886.30;1804927;79;20209;-57
2022/04/07 11:40:28;;;;;;;;;;;;;;;20.55;29.54;99884.84;1805741;79;20209;-57
2022/04/07 11:43:36;;;;;;;;;;;;;;;20.71;29.17;99875.62;1805444;79;20205;-57
2022/04/07 11:46:50;;;;;;;;;;;;;;;20.76;29.02;99868.22;1775162;79;20720;-58
2022/04/07 11:49:56;;;;;;;;;;;;;;;20.93;28.56;99873.75;1800167;79;20209;-57
2022/04/07 11:53:03;;;;;;;;;;;;;;;21.00;27.47;99859.15;1774170;79;20388;-58
2022/04/07 11:56:21;;;;;;;;;;;;;;;21.01;27.36;99850.27;1801067;78;20533;-56
2022/04/07 11:59:26;;;;;;;;;;;;;;;21.00;27.70;99850.80;1799392;79;20204;-58
2022/04/07 12:02:33;;;;;;;;;;;;;;;21.15;28.20;99848.78;1804192;79;20211;-59
2022/04/07 12:05:38;;;;;;;;;;;;;;;21.26;27.89;99837.54;1772719;81;20530;-58
2022/04/07 12:08:44;;;;;;;;;;;;;;;21.39;27.24;99838.52;1772288;81;20204;-59
2022/04/07 12:11:52;;;;;;;;;;;;;;;21.42;27.00;99833.82;1754710;79;20598;-58
2022/04/07 12:15:02;;;;;;;;;;;;;;;21.48;27.07;99833.34;1778060;80;20203;-58
2022/04/07 12:18:15;;;;;;;;;;;;;;;21.54;27.02;99830.38;1756396;80;20211;-60
2022/04/07 12:21:23;;;;;;;;;;;;;;;21.55;27.07;99818.69;1771193;80;20218;-59
2022/04/07 12:24:29;;;;;;;;;;;;;;;21.58;26.82;99824.55;1771482;80;20625;-59
2022/04/07 12:27:39;;;;;;;;;;;;;;;21.54;27.10;99808.63;1772547;80;20283;-59
2022/04/07 12:30:55;;;;;;;;;;;;;;;21.47;27.30;99801.04;1771574;80;20194;-58
2022/04/07 12:34:00;;;;;;;;;;;;;;;21.48;26.95;99807.74;1757952;80;20257;-57
2022/04/07 12:37:07;;;;;;;;;;;;;;;21.47;27.27;99789.33;1769265;80;20209;-58
2022/04/07 12:40:29;;;;;;;;;;;;;;;21.50;26.87;99784.62;1772218;80;20591;-59
2022/04/07 12:43:55;;;;;;;;;;;;;;;21.52;26.91;99781.58;1771305;80;20676;-58
2022/04/07 12:47:05;;;;;;;;;;;;;;;21.55;26.91;99777.72;1770683;80;20392;-58
2022/04/07 12:50:10;;;;;;;;;;;;;;;21.59;26.61;99774.72;1763869;80;20229;-57
2022/04/07 12:53:39;;;;;;;;;;;;;;;21.56;26.21;99770.22;1778165;80;20210;-58
2022/04/07 12:56:45;;;;;;;;;;;;;;;21.59;26.44;99779.44;1764020;80;20264;-58
2022/04/07 13:00:07;;;;;;;;;;;;;;;21.59;26.62;99766.91;1783885;80;20228;-59
2022/04/07 13:03:22;;;;;;;;;;;;;;;21.59;26.20;99753.83;1779378;80;20210;-60
2022/04/07 13:06:32;;;;;;;;;;;;;;;21.56;26.46;99754.90;1773503;79;20537;-59
2022/04/07 13:09:45;;;;;;;;;;;;;;;21.60;26.37;99740.72;1755968;80;20209;-58
2022/04/07 13:12:53;;;;;;;;;;;;;;;21.66;26.12;99744.69;1765161;80;20211;-60
2022/04/07 13:16:01;;;;;;;;;;;;;;;21.75;25.96;99742.28;1768755;80;20555;-57
2022/04/07 13:19:09;;;;;;;;;;;;;;;21.80;26.00;99734.00;1779756;80;20214;-59
2022/04/07 13:22:13;;;;;;;;;;;;;;;21.73;25.96;99736.97;1791713;80;20621;-59
2022/04/07 13:25:19;;;;;;;;;;;;;;;21.72;26.05;99726.91;1788331;77;20222;-60
2022/04/07 13:28:23;;;;;;;;;;;;;;;21.79;26.91;99726.19;1773485;79;20255;-58
2022/04/07 13:31:29;;;;;;;;;;;;;;;21.89;26.13;99716.54;1773743;79;20204;-60
2022/04/07 13:34:36;;;;;;;;;;;;;;;21.85;26.27;99718.73;1784126;79;20219;-58
2022/04/07 13:37:40;;;;;;;;;;;;;;;21.75;26.22;99713.91;1781030;79;20195;-58
2022/04/07 13:40:50;;;;;;;;;;;;;;;21.52;25.87;99716.97;1784723;79;20246;-58
2022/04/07 13:43:55;;;;;;;;;;;;;;;21.46;26.17;99711.06;1778733;79;20216;-58
2022/04/07 13:47:00;;;;;;;;;;;;;;;21.48;26.08;99704.69;1774192;80;20215;-60
2022/04/07 13:50:05;;;;;;;;;;;;;;;21.52;26.41;99695.23;1756392;80;20573;-61
2022/04/07 13:53:09;;;;;;;;;;;;;;;21.60;26.50;99683.61;1783137;79;20251;-58
2022/04/07 13:56:14;;;;;;;;;;;;;;;21.55;26.71;99681.63;1797041;79;20508;-59
2022/04/07 13:59:21;;;;;;;;;;;;;;;21.58;26.54;99678.30;1791140;79;20420;-59
2022/04/07 14:02:29;;;;;;;;;;;;;;;21.66;26.47;99670.86;1789862;79;20220;-61
2022/04/07 14:05:35;;;;;;;;;;;;;;;21.68;26.53;99668.66;1784636;79;20198;-58
2022/04/07 14:08:40;;;;;;;;;;;;;;;21.67;26.28;99657.23;1800464;79;20561;-58
2022/04/07 14:11:47;;;;;;;;;;;;;;;21.49;26.42;99653.44;1791398;79;20245;-59
2022/04/07 14:14:55;;;;;;;;;;;;;;;21.31;26.70;99659.38;1789268;80;20213;-58
2022/04/07 14:17:59;;;;;;;;;;;;;;;21.37;26.53;99654.17;1788394;80;20210;-58
2022/04/07 14:21:05;;;;;;;;;;;;;;;21.43;26.58;99653.65;1787910;80;20202;-57
2022/04/07 14:24:12;;;;;;;;;;;;;;;21.25;26.36;99645.69;1787652;80;20230;-58
2022/04/07 14:27:18;;;;;;;;;;;;;;;21.21;25.97;99655.11;1786417;79;20272;-59
2022/04/07 14:30:24;;;;;;;;;;;;;;;21.39;26.01;99642.19;1789039;80;20614;-58
2022/04/07 14:33:28;;;;;;;;;;;;;;;21.49;26.11;99654.83;1789604;80;20249;-59
2022/04/07 14:36:34;;;;;;;;;;;;;;;21.83;25.80;99648.48;1790573;80;20206;-58
2022/04/07 14:39:40;;;;;;;;;;;;;;;22.25;25.45;99636.77;1782801;79;20246;-59
2022/04/07 14:42:45;;;;;;;;;;;;;;;22.16;25.47;99632.83;1737034;82;20247;-58
2022/04/07 14:45:53;;;;;;;;;;;;;;;21.78;26.10;99640.08;1785008;79;20705;-58
2022/04/07 14:48:58;;;;;;;;;;;;;;;21.79;26.46;99630.05;1792972;79;20222;-59
2022/04/07 14:52:05;;;;;;;;;;;;;;;21.40;26.64;99636.93;1774696;80;20212;-58
2022/04/07 14:55:12;;;;;;;;;;;;;;;21.05;27.12;99627.36;1773398;79;20216;-58
2022/04/07 14:58:20;;;;;;;;;;;;;;;21.05;27.37;99619.02;1773856;81;20211;-58
2022/04/07 15:01:25;;;;;;;;;;;;;;;21.28;27.26;99616.74;1774202;81;20207;-58
2022/04/07 15:04:32;;;;;;;;;;;;;;;21.15;27.38;99622.77;1774558;81;20219;-59
2022/04/07 15:07:39;;;;;;;;;;;;;;;20.93;27.48;99612.73;1772507;81;20207;-59
2022/04/07 15:10:46;;;;;;;;;;;;;;;21.03;27.79;99610.92;1780251;79;20587;-58
2022/04/07 15:13:51;;;;;;;;;;;;;;;21.38;27.56;99608.50;1771344;80;20547;-59
2022/04/07 15:16:56;;;;;;;;;;;;;;;21.62;27.13;99602.86;1783828;79;20237;-59
2022/04/07 15:20:02;;;;;;;;;;;;;;;22.02;27.15;99590.63;1777463;79;20247;-59
2022/04/07 15:23:05;;;;;;;;;;;;;;;21.93;26.98;99589.46;1773417;81;20238;-59
2022/04/07 15:26:09;;;;;;;;;;;;;;;21.57;27.52;99586.10;1779552;79;20629;-58
2022/04/07 15:29:15;;;;;;;;;;;;;;;21.28;27.50;99578.34;1769986;79;20208;-59
2022/04/07 15:32:23;;;;;;;;;;;;;;;20.91;27.91;99582.93;1775631;80;20204;-59
2022/04/07 15:35:35;;;;;;;;;;;;;;;20.41;28.74;99576.22;1791483;80;20202;-59
2022/04/07 15:38:39;;;;;;;;;;;;;;;19.87;29.41;99573.79;1795597;79;20213;-59
2022/04/07 15:41:50;;;;;;;;;;;;;;;19.44;30.09;99567.29;1796501;79;20285;-58
2022/04/07 15:44:55;;;;;;;;;;;;;;;19.10;30.35;99565.01;1795851;80;20202;-58
2022/04/07 15:48:00;;;;;;;;;;;;;;;18.80;30.86;99556.98;1792671;80;20210;-59
2022/04/07 15:51:06;;;;;;;;;;;;;;;18.56;31.36;99558.71;1792627;79;20270;-58
2022/04/07 15:54:12;;;;;;;;;;;;;;;18.40;31.73;99555.34;1791041;80;20210;-58
2022/04/07 15:57:18;;;;;;;;;;;;;;;18.28;31.86;99552.59;1786650;79;20216;-58
2022/04/07 16:00:24;;;;;;;;;;;;;;;18.15;32.10;99556.16;1772706;81;20558;-59
2022/04/07 16:03:23;;;;;;;;;;;;;;;17.98;32.58;99556.09;1772459;81;20230;-59
2022/04/07 16:06:15;;;;;;;;;;;;;;;17.82;32.74;99554.08;1773748;81;20506;-59
2022/04/07 16:09:05;;;;;;;;;;;;;;;17.65;33.05;99550.33;1773580;81;20205;-57
2022/04/07 16:11:58;;;;;;;;;;;;;;;17.48;33.48;99553.53;1738347;82;20231;-60